createdAt,value
2018-07-24T00:02:18.320Z,20.30
2018-07-24T00:04:49.223Z,19.30
2018-07-24T00:07:20.276Z,19.67
2018-07-24T00:09:51.321Z,20.53
2018-07-24T00:12:22.531Z,20.67
2018-07-24T00:14:52.954Z,21.53
2018-07-24T00:17:23.933Z,19.83
2018-07-24T00:19:55.275Z,18.90
2018-07-24T00:22:27.171Z,19.80
2018-07-24T00:24:58.207Z,19.97
2018-07-24T00:27:28.562Z,20.47
2018-07-24T00:29:59.620Z,20.67
2018-07-24T00:32:30.869Z,21.93
2018-07-24T00:35:01.910Z,20.70
2018-07-24T00:37:32.906Z,21.87
2018-07-24T00:40:03.247Z,21.23
2018-07-24T00:42:33.908Z,21.47
2018-07-24T00:45:04.810Z,21.83
2018-07-24T00:47:35.841Z,21.77
2018-07-24T00:50:06.764Z,21.30
2018-07-24T00:52:37.777Z,21.60
2018-07-24T00:55:08.838Z,21.03
2018-07-24T00:57:39.725Z,21.80
2018-07-24T01:00:11.097Z,22.63
2018-07-24T01:02:42.216Z,20.50
2018-07-24T01:05:13.193Z,19.90
2018-07-24T01:07:44.129Z,21.40
2018-07-24T01:10:15.062Z,22.13
2018-07-24T01:12:46.054Z,21.13
2018-07-24T01:15:17.316Z,21.50
2018-07-24T01:17:48.770Z,22.70
2018-07-24T01:20:19.779Z,23.33
2018-07-24T01:22:50.728Z,22.83
2018-07-24T01:25:21.684Z,22.20
2018-07-24T01:27:52.563Z,22.70
2018-07-24T01:30:23.417Z,22.53
2018-07-24T01:32:54.305Z,21.43
2018-07-24T01:35:25.419Z,21.93
2018-07-24T01:37:56.281Z,23.03
2018-07-24T01:40:27.111Z,22.63
2018-07-24T01:42:58.501Z,22.77
2018-07-24T01:45:29.507Z,23.00
2018-07-24T01:48:00.556Z,23.37
2018-07-24T01:50:31.569Z,22.93
2018-07-24T01:53:02.553Z,22.40
2018-07-24T01:55:33.486Z,22.33
2018-07-24T01:58:04.454Z,22.30
2018-07-24T02:00:35.415Z,22.00
2018-07-24T02:03:06.188Z,24.57
2018-07-24T02:05:37.303Z,23.60
2018-07-24T02:08:08.219Z,23.53
2018-07-24T02:10:39.265Z,22.20
2018-07-24T02:13:10.121Z,22.00
2018-07-24T02:15:41.140Z,22.47
2018-07-24T02:18:17.348Z,23.63
2018-07-24T02:20:48.257Z,23.37
2018-07-24T02:23:19.258Z,21.57
2018-07-24T02:25:50.142Z,23.37
2018-07-24T02:28:21.181Z,22.97
2018-07-24T02:30:52.247Z,23.13
2018-07-24T02:33:23.301Z,25.13
2018-07-24T02:35:54.389Z,23.07
2018-07-24T02:38:25.217Z,22.13
2018-07-24T02:40:56.224Z,22.43
2018-07-24T02:43:27.558Z,23.37
2018-07-24T02:45:58.621Z,22.07
2018-07-24T02:48:29.428Z,23.63
2018-07-24T02:51:00.303Z,22.63
2018-07-24T02:53:31.116Z,22.57
2018-07-24T02:56:01.997Z,23.23
2018-07-24T02:58:32.892Z,24.10
2018-07-24T03:01:04.024Z,24.80
2018-07-24T03:03:34.747Z,24.37
2018-07-24T03:06:05.790Z,24.70
2018-07-24T03:08:36.650Z,23.73
2018-07-24T03:11:07.710Z,25.40
2018-07-24T03:13:38.695Z,23.93
2018-07-24T03:16:09.461Z,25.20
2018-07-24T03:18:40.449Z,24.83
2018-07-24T03:21:11.571Z,27.03
2018-07-24T03:23:42.469Z,26.80
2018-07-24T03:26:13.205Z,24.90
2018-07-24T03:28:43.845Z,25.23
2018-07-24T03:31:14.855Z,25.77
2018-07-24T03:33:45.711Z,24.83
2018-07-24T03:36:16.716Z,25.47
2018-07-24T03:38:47.804Z,24.40
2018-07-24T03:41:18.836Z,24.90
2018-07-24T03:43:49.730Z,23.87
2018-07-24T03:46:20.697Z,24.70
2018-07-24T03:48:51.713Z,24.43
2018-07-24T03:51:22.637Z,23.60
2018-07-24T03:53:53.591Z,24.17
2018-07-24T03:56:31.542Z,24.47
2018-07-24T03:59:02.496Z,24.87
2018-07-24T04:01:33.512Z,24.73
2018-07-24T04:04:04.605Z,23.93
2018-07-24T04:06:35.440Z,22.70
2018-07-24T04:09:07.339Z,23.70
2018-07-24T04:11:38.140Z,22.10
2018-07-24T04:14:09.023Z,22.63
2018-07-24T04:16:39.985Z,20.07
2018-07-24T04:19:10.981Z,23.37
2018-07-24T04:21:42.040Z,22.17
2018-07-24T04:24:13.023Z,22.33
2018-07-24T04:26:43.472Z,21.93
2018-07-24T04:29:14.283Z,21.63
2018-07-24T04:31:45.164Z,20.47
2018-07-24T04:34:16.298Z,22.27
2018-07-24T04:36:47.260Z,20.93
2018-07-24T04:39:18.185Z,19.73
2018-07-24T04:41:48.939Z,19.53
2018-07-24T04:44:19.816Z,21.70
2018-07-24T04:46:55.460Z,21.33
2018-07-24T04:49:27.934Z,19.50
2018-07-24T04:51:58.313Z,20.23
2018-07-24T04:54:29.380Z,20.23
2018-07-24T04:57:00.806Z,19.23
2018-07-24T04:59:31.932Z,18.20
2018-07-24T05:02:03.018Z,18.23
2018-07-24T05:04:34.310Z,18.03
2018-07-24T05:07:05.750Z,17.10
2018-07-24T05:09:37.002Z,18.37
2018-07-24T05:12:08.131Z,16.70
2018-07-24T05:14:38.935Z,16.77
2018-07-24T05:17:09.880Z,16.40
2018-07-24T05:19:40.836Z,15.50
2018-07-24T05:22:11.890Z,18.10
2018-07-24T05:24:42.893Z,17.40
2018-07-24T05:27:13.946Z,17.53
2018-07-24T05:29:44.311Z,17.10
2018-07-24T05:32:22.983Z,17.77
2018-07-24T05:34:53.889Z,16.87
2018-07-24T05:40:44.371Z,16.97
2018-07-24T05:43:15.297Z,15.97
2018-07-24T05:45:45.555Z,15.63
2018-07-24T05:48:16.154Z,16.40
2018-07-24T05:50:53.283Z,16.93
2018-07-24T05:53:24.119Z,16.43
2018-07-24T05:55:55.201Z,17.60
2018-07-24T05:58:26.133Z,16.70
2018-07-24T06:00:57.512Z,17.37
2018-07-24T06:03:28.466Z,17.67
2018-07-24T06:05:59.370Z,16.57
2018-07-24T06:08:30.220Z,17.60
2018-07-24T06:11:01.158Z,17.83
2018-07-24T06:13:32.091Z,17.50
2018-07-24T06:16:03.145Z,20.93
2018-07-24T06:18:33.922Z,16.30
2018-07-24T06:21:04.879Z,17.03
2018-07-24T06:23:35.864Z,16.40
2018-07-24T06:26:06.711Z,18.40
2018-07-24T06:28:37.590Z,17.27
2018-07-24T06:31:08.594Z,16.57
2018-07-24T06:33:39.651Z,16.73
2018-07-24T06:36:10.858Z,17.00
2018-07-24T06:38:41.679Z,16.23
2018-07-24T06:41:12.744Z,16.90
2018-07-24T06:43:43.514Z,15.87
2018-07-24T06:46:14.373Z,15.53
2018-07-24T06:48:45.464Z,16.27
2018-07-24T06:51:16.582Z,16.97
2018-07-24T06:53:47.404Z,16.33
2018-07-24T06:56:18.222Z,15.53
2018-07-24T06:58:49.205Z,15.77
2018-07-24T07:01:20.450Z,16.07
2018-07-24T07:03:51.583Z,16.30
2018-07-24T07:06:22.431Z,16.00
2018-07-24T07:08:56.600Z,17.10
2018-07-24T07:11:27.707Z,16.70
2018-07-24T07:13:58.855Z,16.27
2018-07-24T07:16:29.816Z,15.93
2018-07-24T07:19:00.917Z,15.77
2018-07-24T07:21:31.627Z,15.10
2018-07-24T07:24:02.669Z,16.47
2018-07-24T07:26:33.443Z,14.97
2018-07-24T07:29:04.421Z,15.60
2018-07-24T07:31:35.374Z,17.27
2018-07-24T07:34:06.289Z,17.33
2018-07-24T07:36:37.421Z,16.07
2018-07-24T07:39:09.938Z,16.53
2018-07-24T07:41:40.937Z,16.10
2018-07-24T07:44:11.491Z,15.93
2018-07-24T07:46:43.227Z,14.93
2018-07-24T07:49:14.164Z,15.67
2018-07-24T07:51:45.337Z,14.73
2018-07-24T07:54:16.253Z,16.87
2018-07-24T07:56:47.278Z,14.97
2018-07-24T07:59:18.259Z,15.83
2018-07-24T08:01:49.837Z,15.30
2018-07-24T08:04:20.708Z,15.20
2018-07-24T08:06:51.641Z,15.80
2018-07-24T08:09:22.571Z,14.60
2018-07-24T08:11:53.437Z,14.98
2018-07-24T08:14:24.319Z,16.00
2018-07-24T08:16:55.240Z,16.43
2018-07-24T08:19:26.076Z,14.07
2018-07-24T08:21:57.089Z,14.43
2018-07-24T08:24:28.094Z,14.87
2018-07-24T08:26:59.320Z,14.65
2018-07-24T08:29:30.051Z,15.37
2018-07-24T08:32:01.013Z,14.07
2018-07-24T08:34:31.974Z,14.07
2018-07-24T08:37:02.839Z,15.43
2018-07-24T08:39:33.837Z,14.63
2018-07-24T08:42:04.874Z,14.77
2018-07-24T08:44:35.690Z,14.50
2018-07-24T08:47:06.615Z,14.87
2018-07-24T08:49:37.643Z,14.50
2018-07-24T08:52:08.796Z,15.18
2018-07-24T08:54:39.926Z,15.25
2018-07-24T08:57:10.736Z,14.25
2018-07-24T08:59:41.543Z,15.15
2018-07-24T09:02:12.533Z,14.05
2018-07-24T09:04:43.293Z,14.40
2018-07-24T09:07:14.316Z,14.63
2018-07-24T09:09:45.138Z,15.45
2018-07-24T09:12:15.456Z,14.98
2018-07-24T09:14:46.138Z,14.43
2018-07-24T09:17:17.128Z,14.95
2018-07-24T09:19:48.060Z,14.70
2018-07-24T09:22:19.023Z,13.75
2018-07-24T09:24:49.643Z,13.55
2018-07-24T09:27:20.691Z,14.80
2018-07-24T09:29:51.584Z,14.18
2018-07-24T09:32:22.561Z,11.05
2018-07-24T09:34:53.522Z,10.95
2018-07-24T09:37:24.472Z,10.35
2018-07-24T09:39:55.401Z,9.73
2018-07-24T09:42:26.442Z,10.20
2018-07-24T09:44:57.111Z,10.58
2018-07-24T09:47:27.894Z,9.78
2018-07-24T09:49:58.669Z,10.90
2018-07-24T09:52:29.460Z,10.80
2018-07-24T09:55:00.190Z,11.65
2018-07-24T09:57:31.127Z,10.68
2018-07-24T10:00:01.987Z,10.13
2018-07-24T10:02:32.872Z,9.75
2018-07-24T10:05:03.703Z,9.60
2018-07-24T10:07:34.560Z,9.75
2018-07-24T10:10:05.395Z,11.05
2018-07-24T10:12:36.264Z,10.80
2018-07-24T10:15:07.922Z,10.88
2018-07-24T10:17:38.982Z,8.35
2018-07-24T10:20:09.983Z,9.58
2018-07-24T10:22:40.991Z,9.23
2018-07-24T10:25:12.283Z,7.90
2018-07-24T10:27:43.032Z,8.45
2018-07-24T10:30:14.086Z,8.08
2018-07-24T10:32:44.982Z,7.50
2018-07-24T10:35:15.799Z,8.28
2018-07-24T10:37:46.461Z,7.15
2018-07-24T10:40:17.051Z,7.50
2018-07-24T10:42:47.888Z,6.25
2018-07-24T10:45:18.755Z,6.85
2018-07-24T10:47:49.626Z,6.05
2018-07-24T10:50:20.915Z,5.33
2018-07-24T10:52:51.847Z,6.47
2018-07-24T10:55:22.716Z,7.12
2018-07-24T10:57:53.658Z,8.18
2018-07-24T11:00:24.579Z,6.55
2018-07-24T11:02:55.271Z,5.97
2018-07-24T11:05:26.000Z,6.10
2018-07-24T11:07:57.117Z,6.95
2018-07-24T11:10:28.031Z,6.78
2018-07-24T11:12:58.957Z,5.70
2018-07-24T11:15:29.733Z,6.22
2018-07-24T11:18:00.705Z,7.92
2018-07-24T11:20:31.673Z,6.67
2018-07-24T11:23:02.699Z,7.90
2018-07-24T11:25:33.695Z,7.15
2018-07-24T11:28:04.485Z,6.28
2018-07-24T11:30:35.569Z,6.12
2018-07-24T11:33:06.888Z,6.00
2018-07-24T11:35:37.500Z,7.00
2018-07-24T11:38:07.889Z,6.67
2018-07-24T11:40:38.645Z,7.20
2018-07-24T11:43:09.778Z,6.50
2018-07-24T11:45:40.436Z,6.80
2018-07-24T11:48:11.646Z,6.67
2018-07-24T11:50:42.601Z,6.08
2018-07-24T11:53:13.447Z,6.42
2018-07-24T11:55:44.291Z,6.40
2018-07-24T11:58:15.260Z,6.83
2018-07-24T12:00:46.303Z,6.83
2018-07-24T12:03:17.217Z,7.17
2018-07-24T12:05:48.355Z,7.00
2018-07-24T12:08:19.319Z,6.97
2018-07-24T12:10:50.571Z,7.60
2018-07-24T12:13:21.883Z,7.20
2018-07-24T12:15:52.786Z,6.47
2018-07-24T12:18:23.631Z,7.15
2018-07-24T12:20:54.461Z,6.70
2018-07-24T12:23:25.331Z,6.67
2018-07-24T12:25:56.275Z,6.87
2018-07-24T12:28:27.240Z,7.35
2018-07-24T12:30:58.190Z,6.72
2018-07-24T12:33:29.233Z,7.05
2018-07-24T12:36:00.014Z,6.87
2018-07-24T12:38:30.950Z,6.80
2018-07-24T12:41:01.824Z,7.28
2018-07-24T12:43:33.004Z,7.03
2018-07-24T12:46:03.769Z,6.42
2018-07-24T12:48:34.743Z,5.80
2018-07-24T12:51:05.626Z,6.90
2018-07-24T12:53:36.586Z,6.90
2018-07-24T12:56:07.409Z,6.37
2018-07-24T12:58:38.263Z,6.50
2018-07-24T13:01:09.110Z,6.83
2018-07-24T13:03:40.071Z,6.97
2018-07-24T13:06:11.103Z,6.95
2018-07-24T13:08:42.182Z,6.58
2018-07-24T13:11:13.383Z,5.85
2018-07-24T13:13:44.245Z,6.22
2018-07-24T13:16:14.961Z,5.72
2018-07-24T13:18:45.966Z,6.03
2018-07-24T13:21:16.930Z,5.72
2018-07-24T13:23:47.785Z,5.58
2018-07-24T13:26:18.756Z,5.90
2018-07-24T13:28:49.831Z,5.50
2018-07-24T13:31:20.479Z,5.78
2018-07-24T13:33:51.187Z,5.75
2018-07-24T13:36:21.863Z,5.92
2018-07-24T13:38:52.857Z,5.90
2018-07-24T13:41:23.888Z,5.53
2018-07-24T13:43:54.712Z,5.60
2018-07-24T13:46:25.684Z,5.30
2018-07-24T13:48:56.547Z,7.85
2018-07-24T13:51:27.364Z,5.50
2018-07-24T13:53:58.581Z,5.30
2018-07-24T13:56:29.422Z,7.83
2018-07-24T13:59:00.187Z,5.00
2018-07-24T14:01:31.039Z,5.70
2018-07-24T14:04:01.824Z,5.45
2018-07-24T14:06:32.649Z,5.70
2018-07-24T14:09:04.468Z,5.35
2018-07-24T14:11:35.402Z,5.80
2018-07-24T14:14:06.290Z,5.92
2018-07-24T14:16:36.942Z,5.53
2018-07-24T14:19:08.636Z,5.65
2018-07-24T14:21:39.701Z,5.40
2018-07-24T14:24:10.568Z,5.75
2018-07-24T14:26:41.482Z,5.28
2018-07-24T14:29:12.365Z,5.47
2018-07-24T14:31:43.345Z,5.05
2018-07-24T14:34:14.325Z,5.12
2018-07-24T14:36:45.345Z,5.70
2018-07-24T14:39:16.216Z,4.70
2018-07-24T14:41:46.969Z,5.30
2018-07-24T14:44:17.809Z,4.58
2018-07-24T14:46:48.694Z,4.97
2018-07-24T14:49:19.576Z,5.17
2018-07-24T14:51:50.419Z,5.05
2018-07-24T14:54:21.546Z,5.00
2018-07-24T14:56:52.466Z,5.33
2018-07-24T14:59:23.405Z,5.53
2018-07-24T15:01:54.249Z,5.95
2018-07-24T15:04:25.302Z,6.03
2018-07-24T15:06:56.291Z,5.10
2018-07-24T15:09:28.504Z,5.20
2018-07-24T15:11:59.574Z,4.83
2018-07-24T15:14:30.725Z,5.80
2018-07-24T15:17:01.788Z,5.70
2018-07-24T15:19:32.520Z,4.97
2018-07-24T15:22:03.492Z,5.35
2018-07-24T15:24:34.769Z,5.37
2018-07-24T15:27:06.778Z,5.65
2018-07-24T15:29:37.684Z,5.33
2018-07-24T15:32:08.690Z,5.95
2018-07-24T15:34:39.776Z,5.58
2018-07-24T15:37:10.512Z,5.03
2018-07-24T15:39:41.449Z,5.40
2018-07-24T15:42:12.473Z,5.45
2018-07-24T15:44:43.575Z,5.55
2018-07-24T15:47:14.526Z,6.42
2018-07-24T15:49:45.227Z,5.30
2018-07-24T15:52:38.331Z,5.08
2018-07-24T15:55:10.102Z,5.33
2018-07-24T15:57:41.052Z,5.47
2018-07-24T16:03:35.489Z,5.37
2018-07-24T16:06:06.360Z,5.37
2018-07-24T16:11:35.319Z,6.47
2018-07-24T16:14:06.100Z,5.28
2018-07-24T16:16:55.042Z,6.08
2018-07-24T16:19:25.851Z,4.87
2018-07-24T16:21:56.750Z,5.50
2018-07-24T16:24:27.780Z,5.10
2018-07-24T16:26:58.496Z,5.00
2018-07-24T16:29:30.323Z,5.17
2018-07-24T16:32:01.219Z,5.45
2018-07-24T16:34:32.052Z,4.85
2018-07-24T16:37:03.151Z,5.00
2018-07-24T16:39:33.796Z,4.62
2018-07-24T16:42:04.707Z,5.33
2018-07-24T16:47:54.496Z,4.85
2018-07-24T16:50:25.499Z,4.92
2018-07-24T16:52:55.756Z,5.30
2018-07-24T16:55:26.272Z,5.50
2018-07-24T16:57:57.338Z,5.10
2018-07-24T17:00:27.695Z,5.08
2018-07-24T17:02:58.289Z,6.62
2018-07-24T17:05:29.182Z,5.00
2018-07-24T17:07:59.988Z,5.20
2018-07-24T17:10:31.135Z,4.50
2018-07-24T17:13:08.724Z,4.62
2018-07-24T17:15:39.744Z,6.62
2018-07-24T17:18:10.610Z,4.87
2018-07-24T17:20:41.695Z,4.50
2018-07-24T17:23:12.633Z,4.12
2018-07-24T17:25:43.570Z,4.53
2018-07-24T17:28:14.491Z,4.45
2018-07-24T17:30:45.345Z,4.22
2018-07-24T17:33:16.327Z,5.47
2018-07-24T17:35:47.526Z,3.95
2018-07-24T17:38:18.956Z,4.50
2018-07-24T17:40:50.001Z,6.25
2018-07-24T17:43:20.819Z,4.75
2018-07-24T17:45:52.216Z,4.53
2018-07-24T17:48:23.081Z,4.12
2018-07-24T17:50:53.785Z,4.08
2018-07-24T17:53:24.617Z,4.50
2018-07-24T17:55:55.397Z,4.37
2018-07-24T17:58:26.338Z,4.42
2018-07-24T18:00:57.337Z,4.40
2018-07-24T18:03:28.048Z,4.10
2018-07-24T18:05:58.238Z,4.40
2018-07-24T18:08:28.798Z,4.60
2018-07-24T18:10:59.890Z,4.30
2018-07-24T18:13:30.757Z,4.20
2018-07-24T18:16:01.706Z,4.08
2018-07-24T18:18:32.608Z,4.47
2018-07-24T18:21:03.506Z,4.55
2018-07-24T18:23:34.516Z,5.00
2018-07-24T18:26:05.263Z,4.95
2018-07-24T18:28:36.310Z,5.05
2018-07-24T18:34:19.754Z,4.83
2018-07-24T18:36:50.528Z,4.83
2018-07-24T18:39:21.411Z,5.75
2018-07-24T18:41:52.220Z,6.12
2018-07-24T18:44:23.084Z,5.33
2018-07-24T18:46:54.164Z,5.60
2018-07-24T18:49:25.235Z,10.48
2018-07-24T18:51:56.149Z,5.47
2018-07-24T18:54:28.003Z,5.97
2018-07-24T18:56:58.864Z,6.90
2018-07-24T18:59:29.599Z,6.33
2018-07-24T19:02:00.229Z,7.00
2018-07-24T19:04:31.268Z,6.22
2018-07-24T19:07:02.251Z,6.62
2018-07-24T19:09:33.143Z,10.65
2018-07-24T19:12:04.218Z,6.30
2018-07-24T19:14:35.249Z,6.60
2018-07-24T19:17:06.133Z,6.92
2018-07-24T19:19:37.165Z,7.75
2018-07-24T19:22:13.244Z,7.10
2018-07-24T19:24:44.064Z,7.20
2018-07-24T19:27:15.077Z,7.87
2018-07-24T19:29:46.095Z,6.85
2018-07-24T19:32:17.111Z,7.60
2018-07-24T19:34:48.107Z,7.53
2018-07-24T19:37:18.803Z,8.68
2018-07-24T19:39:49.716Z,8.18
2018-07-24T19:42:20.395Z,8.63
2018-07-24T19:44:51.359Z,8.10
2018-07-24T19:47:22.593Z,8.83
2018-07-24T19:49:53.544Z,9.00
2018-07-24T19:52:24.223Z,9.50
2018-07-24T19:54:55.160Z,9.30
2018-07-24T19:57:26.119Z,9.23
2018-07-24T19:59:57.090Z,10.00
2018-07-24T20:02:28.044Z,9.67
2018-07-24T20:04:58.668Z,10.57
2018-07-24T20:07:29.255Z,11.33
2018-07-24T20:10:11.509Z,11.57
2018-07-24T20:12:52.230Z,10.23
2018-07-24T20:15:23.078Z,11.30
2018-07-24T20:18:10.832Z,10.10
2018-07-24T20:20:41.856Z,10.50
2018-07-24T20:23:12.993Z,10.47
2018-07-24T20:25:44.000Z,10.17
2018-07-24T20:28:14.737Z,12.37
2018-07-24T20:30:45.879Z,10.00
2018-07-24T20:33:17.748Z,10.03
2018-07-24T20:38:56.787Z,10.20
2018-07-24T20:41:40.307Z,9.17
2018-07-24T20:44:17.367Z,9.97
2018-07-24T20:46:48.606Z,10.23
2018-07-24T20:49:19.377Z,11.23
2018-07-24T20:51:50.759Z,11.40
2018-07-24T20:54:21.716Z,11.23
2018-07-24T20:56:52.837Z,11.50
2018-07-24T21:02:43.271Z,10.47
2018-07-24T21:05:22.171Z,10.47
2018-07-24T21:08:10.964Z,11.83
2018-07-24T21:10:42.625Z,11.13
2018-07-24T21:13:13.675Z,12.53
2018-07-24T21:15:44.577Z,12.07
2018-07-24T21:18:15.579Z,11.50
2018-07-24T21:20:46.619Z,10.80
2018-07-24T21:23:17.693Z,12.27
2018-07-24T21:25:48.499Z,12.13
2018-07-24T21:28:19.354Z,11.53
2018-07-24T21:30:50.184Z,12.07
2018-07-24T21:33:21.335Z,11.73
2018-07-24T21:35:52.512Z,11.53
2018-07-24T21:38:23.387Z,12.50
2018-07-24T21:40:54.275Z,12.23
2018-07-24T21:43:25.082Z,12.23
2018-07-24T21:45:55.912Z,11.80
2018-07-24T21:48:26.793Z,10.20
2018-07-24T21:50:57.489Z,11.33
2018-07-24T21:53:28.436Z,10.93
2018-07-24T21:55:59.350Z,11.50
2018-07-24T21:58:30.494Z,12.47
2018-07-24T22:01:06.482Z,11.80
2018-07-24T22:03:37.485Z,13.00
2018-07-24T22:06:08.463Z,13.53
2018-07-24T22:08:39.669Z,13.40
2018-07-24T22:11:10.492Z,12.20
2018-07-24T22:13:41.557Z,13.17
2018-07-24T22:16:12.570Z,12.70
2018-07-24T22:18:43.658Z,12.13
2018-07-24T22:21:14.625Z,12.33
2018-07-24T22:23:45.712Z,12.60
2018-07-24T22:26:16.761Z,12.83
2018-07-24T22:28:47.621Z,14.80
2018-07-24T22:31:18.903Z,13.70
2018-07-24T22:33:50.088Z,13.77
2018-07-24T22:36:21.002Z,13.50
2018-07-24T22:38:51.938Z,13.47
2018-07-24T22:41:22.785Z,13.93
2018-07-24T22:43:53.621Z,13.20
2018-07-24T22:46:24.623Z,13.13
2018-07-24T22:48:55.544Z,13.80
2018-07-24T22:51:26.031Z,13.53
2018-07-24T22:53:56.735Z,13.00
2018-07-24T22:56:27.827Z,13.07
2018-07-24T22:58:58.702Z,13.67
2018-07-24T23:01:30.216Z,12.60
2018-07-24T23:04:01.034Z,12.70
2018-07-24T23:06:31.817Z,13.23
2018-07-24T23:09:02.885Z,12.83
2018-07-24T23:11:33.756Z,13.20
2018-07-24T23:14:04.780Z,12.30
2018-07-24T23:16:35.596Z,13.13
2018-07-24T23:19:06.864Z,13.93
2018-07-24T23:21:37.888Z,13.47
2018-07-24T23:24:08.896Z,14.00
2018-07-24T23:26:40.144Z,14.67
2018-07-24T23:29:11.073Z,13.73
2018-07-24T23:31:42.038Z,13.33
2018-07-24T23:34:12.938Z,14.47
2018-07-24T23:36:43.820Z,15.30
2018-07-24T23:39:15.210Z,15.67
2018-07-24T23:41:45.580Z,14.40
2018-07-24T23:44:16.383Z,14.40
2018-07-24T23:46:47.269Z,14.93
2018-07-24T23:49:17.989Z,16.30
2018-07-24T23:51:48.240Z,15.50
2018-07-24T23:54:18.971Z,15.50
2018-07-24T23:56:49.920Z,14.60
2018-07-24T23:59:21.825Z,14.67
